Deatsville, Kentucky
Current Conditions -  °F | °C
As of 6:56 PM on Sunday 23 Nov 2014 (Local Time) from KSDF Reporting Station
Light Rain Light Rain  
Wind Chill: 56°   Ceiling: 800
Heat Index: 56°   Visibility: 6mi
Dew Point: 54°   Wind: 14mph
Humidity: 93%   Direction: 140°SE
Pressure: 29.4"   Gusts: NA
Location:  37.9212°N, 85.4864°W
Report Text: KSDF 232356Z 14012KT 6SM -RA BR BKN008 BKN014 OVC043 13/12 A2940 RMK AO2 SLP954 P0013 60068 T01330122 10139 20122 56047 $
Loading
Personal Weather Stations






























Interactive Weather Map New forecast layout! Learn more

10-Day Weather Forecast

Advertisements
Track Severe Weather on mobile